createdAt,value
2018-05-07T00:02:08.655Z,56.38
2018-05-07T00:04:34.496Z,56.55
2018-05-07T00:07:00.353Z,56.53
2018-05-07T00:09:26.269Z,56.34
2018-05-07T00:11:52.112Z,56.60
2018-05-07T00:14:17.955Z,56.41
2018-05-07T00:16:43.770Z,56.97
2018-05-07T00:19:09.590Z,57.13
2018-05-07T00:21:35.472Z,57.08
2018-05-07T00:24:01.308Z,57.09
2018-05-07T00:26:27.164Z,56.97
2018-05-07T00:28:53.001Z,56.94
2018-05-07T00:31:18.852Z,57.04
2018-05-07T00:33:44.722Z,57.59
2018-05-07T00:36:10.577Z,57.59
2018-05-07T00:38:36.439Z,57.44
2018-05-07T00:41:02.296Z,57.35
2018-05-07T00:43:28.179Z,57.42
2018-05-07T00:45:54.019Z,57.34
2018-05-07T00:48:19.869Z,57.62
2018-05-07T00:50:45.734Z,57.50
2018-05-07T00:53:11.580Z,57.88
2018-05-07T00:55:37.404Z,57.95
2018-05-07T00:58:03.225Z,57.66
2018-05-07T01:00:29.081Z,58.74
2018-05-07T01:02:54.927Z,58.50
2018-05-07T01:05:20.776Z,57.94
2018-05-07T01:07:46.596Z,58.46
2018-05-07T01:10:12.478Z,58.22
2018-05-07T01:12:38.318Z,58.47
2018-05-07T01:15:04.161Z,58.65
2018-05-07T01:17:30.016Z,59.04
2018-05-07T01:19:55.876Z,59.19
2018-05-07T01:22:21.760Z,58.66
2018-05-07T01:24:47.633Z,58.80
2018-05-07T01:27:13.491Z,59.11
2018-05-07T01:29:39.349Z,58.82
2018-05-07T01:32:05.209Z,58.84
2018-05-07T01:34:31.056Z,58.29
2018-05-07T01:36:56.934Z,58.45
2018-05-07T01:39:22.773Z,58.56
2018-05-07T01:41:48.614Z,58.68
2018-05-07T01:44:14.468Z,58.29
2018-05-07T01:46:40.364Z,57.94
2018-05-07T01:49:06.200Z,58.57
2018-05-07T01:51:32.067Z,58.33
2018-05-07T01:53:57.947Z,58.24
2018-05-07T01:56:23.824Z,58.27
2018-05-07T01:58:49.684Z,58.15
2018-05-07T02:01:15.571Z,58.29
2018-05-07T02:03:41.433Z,58.32
2018-05-07T02:06:07.324Z,58.23
2018-05-07T02:08:33.180Z,58.46
2018-05-07T02:10:59.044Z,58.70
2018-05-07T02:13:24.897Z,59.11
2018-05-07T02:15:50.780Z,60.13
2018-05-07T02:18:16.656Z,60.10
2018-05-07T02:20:42.513Z,60.21
2018-05-07T02:23:08.356Z,60.08
2018-05-07T02:25:34.185Z,60.08
2018-05-07T02:28:00.056Z,59.69
2018-05-07T02:30:25.892Z,60.55
2018-05-07T02:32:51.779Z,61.73
2018-05-07T02:35:17.609Z,62.17
2018-05-07T02:37:43.461Z,62.95
2018-05-07T02:40:09.332Z,62.22
2018-05-07T02:42:35.180Z,61.89
2018-05-07T02:45:01.029Z,61.83
2018-05-07T02:47:26.881Z,61.40
2018-05-07T02:49:52.777Z,61.82
2018-05-07T02:52:18.610Z,62.00
2018-05-07T02:54:44.483Z,61.31
2018-05-07T02:57:10.343Z,61.86
2018-05-07T02:59:36.228Z,61.45
2018-05-07T03:02:02.105Z,62.22
2018-05-07T03:04:27.963Z,62.17
2018-05-07T03:06:53.871Z,62.00
2018-05-07T03:09:19.744Z,61.66
2018-05-07T03:11:45.602Z,63.55
2018-05-07T03:14:11.497Z,63.00
2018-05-07T03:16:37.377Z,62.86
2018-05-07T03:19:03.276Z,62.75
2018-05-07T03:21:29.150Z,63.40
2018-05-07T03:23:55.039Z,63.21
2018-05-07T03:26:20.937Z,63.18
2018-05-07T03:28:46.856Z,63.65
2018-05-07T03:31:13.419Z,64.41
2018-05-07T03:33:39.316Z,65.34
2018-05-07T03:36:05.162Z,65.69
2018-05-07T03:38:31.025Z,65.08
2018-05-07T03:40:56.883Z,64.87
2018-05-07T03:43:22.751Z,65.57
2018-05-07T03:45:48.608Z,66.09
2018-05-07T03:48:14.445Z,66.53
2018-05-07T03:50:40.301Z,67.22
2018-05-07T03:53:06.148Z,68.07
2018-05-07T03:55:32.021Z,67.53
2018-05-07T03:57:57.858Z,67.19
2018-05-07T04:00:23.705Z,66.93
2018-05-07T04:02:49.573Z,66.51
2018-05-07T04:05:15.443Z,66.31
2018-05-07T04:07:41.324Z,65.93
2018-05-07T04:10:07.230Z,66.17
2018-05-07T04:12:33.144Z,65.73
2018-05-07T04:15:05.902Z,64.77
2018-05-07T04:17:44.132Z,64.59
2018-05-07T04:20:22.376Z,64.79
2018-05-07T04:23:00.600Z,65.23
2018-05-07T04:25:26.464Z,66.20
2018-05-07T04:27:52.332Z,66.28
2018-05-07T04:30:18.176Z,66.93
2018-05-07T04:32:44.045Z,67.16
2018-05-07T04:35:09.920Z,67.11
2018-05-07T04:37:35.760Z,66.77
2018-05-07T04:40:01.641Z,65.67
2018-05-07T04:42:27.499Z,65.85
2018-05-07T04:44:53.337Z,65.40
2018-05-07T04:47:19.183Z,64.98
2018-05-07T04:49:45.038Z,65.07
2018-05-07T04:52:10.884Z,64.88
2018-05-07T04:54:36.694Z,65.11
2018-05-07T04:57:02.544Z,64.73
2018-05-07T04:59:28.512Z,64.44
2018-05-07T05:01:54.309Z,64.49
2018-05-07T05:04:20.204Z,64.14
2018-05-07T05:06:46.071Z,65.16
2018-05-07T05:09:11.909Z,65.24
2018-05-07T05:11:37.747Z,64.93
2018-05-07T05:14:03.617Z,64.74
2018-05-07T05:16:29.479Z,63.53
2018-05-07T05:18:55.341Z,62.35
2018-05-07T05:21:21.231Z,62.33
2018-05-07T05:23:47.131Z,61.42
2018-05-07T05:26:13.008Z,60.90
2018-05-07T05:28:38.862Z,59.54
2018-05-07T05:31:04.725Z,59.67
2018-05-07T05:33:30.610Z,59.04
2018-05-07T05:35:56.446Z,58.91
2018-05-07T05:38:22.303Z,57.57
2018-05-07T05:40:48.216Z,57.29
2018-05-07T05:43:14.062Z,56.71
2018-05-07T05:45:40.001Z,56.36
2018-05-07T05:48:05.881Z,56.14
2018-05-07T05:50:31.735Z,55.58
2018-05-07T05:52:57.613Z,55.47
2018-05-07T05:55:23.512Z,54.30
2018-05-07T05:57:49.496Z,52.84
2018-05-07T06:00:15.333Z,53.83
2018-05-07T06:02:41.184Z,54.10
2018-05-07T06:05:07.032Z,53.30
2018-05-07T06:07:32.883Z,53.67
2018-05-07T06:09:58.772Z,52.28
2018-05-07T06:12:24.633Z,52.00
2018-05-07T06:14:50.626Z,50.87
2018-05-07T06:17:16.340Z,50.47
2018-05-07T06:19:42.184Z,50.26
2018-05-07T06:22:08.055Z,50.39
2018-05-07T06:24:33.916Z,50.39
2018-05-07T06:26:59.761Z,49.98
2018-05-07T06:29:25.608Z,49.68
2018-05-07T06:31:51.462Z,49.92
2018-05-07T06:34:17.332Z,50.90
2018-05-07T06:36:43.164Z,49.78
2018-05-07T06:39:09.018Z,49.20
2018-05-07T06:41:34.896Z,48.55
2018-05-07T06:44:00.757Z,48.42
2018-05-07T06:46:26.591Z,48.39
2018-05-07T06:48:52.426Z,47.77
2018-05-07T06:51:18.294Z,46.99
2018-05-07T06:53:44.138Z,47.27
2018-05-07T06:56:10.047Z,46.13
2018-05-07T06:58:35.908Z,47.16
2018-05-07T07:01:01.783Z,46.84
2018-05-07T07:03:27.677Z,44.67
2018-05-07T07:05:53.517Z,45.80
2018-05-07T07:08:19.463Z,45.17
2018-05-07T07:10:45.284Z,45.20
2018-05-07T07:13:11.218Z,43.56
2018-05-07T07:15:37.087Z,44.13
2018-05-07T07:18:02.985Z,44.41
2018-05-07T07:20:28.875Z,43.91
2018-05-07T07:22:54.711Z,44.40
2018-05-07T07:25:20.565Z,43.10
2018-05-07T07:27:46.403Z,42.20
2018-05-07T07:30:12.237Z,42.69
2018-05-07T07:32:38.103Z,42.10
2018-05-07T07:35:04.207Z,41.22
2018-05-07T07:37:30.101Z,41.49
2018-05-07T07:39:55.985Z,41.25
2018-05-07T07:42:21.833Z,39.78
2018-05-07T07:44:47.684Z,40.62
2018-05-07T07:47:13.627Z,41.35
2018-05-07T07:49:39.379Z,40.57
2018-05-07T07:52:05.214Z,40.42
2018-05-07T07:54:31.092Z,40.30
2018-05-07T07:56:56.949Z,38.17
2018-05-07T07:59:22.813Z,38.21
2018-05-07T08:01:48.662Z,37.15
2018-05-07T08:04:14.601Z,36.86
2018-05-07T08:06:40.429Z,37.61
2018-05-07T08:09:06.329Z,36.63
2018-05-07T08:11:32.205Z,35.76
2018-05-07T08:13:58.074Z,36.23
2018-05-07T08:16:23.960Z,36.78
2018-05-07T08:18:49.810Z,37.13
2018-05-07T08:21:15.697Z,36.82
2018-05-07T08:23:41.537Z,36.52
2018-05-07T08:26:07.412Z,36.51
2018-05-07T08:28:33.247Z,36.84
2018-05-07T08:30:59.090Z,36.31
2018-05-07T08:33:24.954Z,36.50
2018-05-07T08:35:50.809Z,37.16
2018-05-07T08:38:16.674Z,36.26
2018-05-07T08:40:42.568Z,36.04
2018-05-07T08:43:08.447Z,36.28
2018-05-07T08:45:34.305Z,35.50
2018-05-07T08:48:00.174Z,35.29
2018-05-07T08:50:26.021Z,34.69
2018-05-07T08:52:51.996Z,34.66
2018-05-07T08:55:17.808Z,35.83
2018-05-07T08:57:43.677Z,35.47
2018-05-07T09:00:09.521Z,34.86
2018-05-07T09:02:35.371Z,34.81
2018-05-07T09:05:01.256Z,34.97
2018-05-07T09:07:27.096Z,34.80
2018-05-07T09:09:52.949Z,35.53
2018-05-07T09:12:18.837Z,34.74
2018-05-07T09:14:44.712Z,35.48
2018-05-07T09:17:10.598Z,35.37
2018-05-07T09:19:36.500Z,34.27
2018-05-07T09:22:02.386Z,34.73
2018-05-07T09:24:28.248Z,34.40
2018-05-07T09:26:54.133Z,35.09
2018-05-07T09:29:20.011Z,33.30
2018-05-07T09:31:45.896Z,34.17
2018-05-07T09:34:11.742Z,35.16
2018-05-07T09:36:37.649Z,35.11
2018-05-07T09:39:03.550Z,35.36
2018-05-07T09:41:29.389Z,35.11
2018-05-07T09:43:55.269Z,34.28
2018-05-07T09:46:21.145Z,34.17
2018-05-07T09:48:46.985Z,34.75
2018-05-07T09:51:12.829Z,34.30
2018-05-07T09:53:38.664Z,35.00
2018-05-07T09:56:04.536Z,33.44
2018-05-07T09:58:30.423Z,32.69
2018-05-07T10:00:57.268Z,33.64
2018-05-07T10:03:23.163Z,33.64
2018-05-07T10:05:49.021Z,32.65
2018-05-07T10:08:14.938Z,34.24
2018-05-07T10:10:40.802Z,33.62
2018-05-07T10:13:06.700Z,32.56
2018-05-07T10:15:32.622Z,32.50
2018-05-07T10:17:58.503Z,32.00
2018-05-07T10:20:24.437Z,32.64
2018-05-07T10:22:50.320Z,31.47
2018-05-07T10:25:16.286Z,30.57
2018-05-07T10:27:42.140Z,31.12
2018-05-07T10:30:08.050Z,30.81
2018-05-07T10:32:33.937Z,31.54
2018-05-07T10:34:59.799Z,30.99
2018-05-07T10:37:25.676Z,30.74
2018-05-07T10:39:51.555Z,30.19
2018-05-07T10:42:17.406Z,30.25
2018-05-07T10:44:43.218Z,29.95
2018-05-07T10:47:09.125Z,29.49
2018-05-07T10:49:34.966Z,29.19
2018-05-07T10:52:00.830Z,29.42
2018-05-07T10:54:26.672Z,29.37
2018-05-07T10:56:52.532Z,29.39
2018-05-07T10:59:18.369Z,30.03
2018-05-07T11:01:44.228Z,29.02
2018-05-07T11:04:10.131Z,28.58
2018-05-07T11:06:35.974Z,28.41
2018-05-07T11:09:01.849Z,27.30
2018-05-07T11:11:27.725Z,27.28
2018-05-07T11:13:53.604Z,26.07
2018-05-07T11:16:19.428Z,26.52
2018-05-07T11:18:45.297Z,27.20
2018-05-07T11:21:11.183Z,26.49
2018-05-07T11:23:37.018Z,26.16
2018-05-07T11:26:02.858Z,25.91
2018-05-07T11:28:28.718Z,25.48
2018-05-07T11:30:54.583Z,24.64
2018-05-07T11:33:20.419Z,24.65
2018-05-07T11:35:46.264Z,25.18
2018-05-07T11:38:12.105Z,23.85
2018-05-07T11:40:37.952Z,24.14
2018-05-07T11:43:03.798Z,24.33
2018-05-07T11:45:29.670Z,24.34
2018-05-07T11:47:55.518Z,23.77
2018-05-07T11:50:21.333Z,22.67
2018-05-07T11:52:47.187Z,21.44
2018-05-07T11:55:13.061Z,21.11
2018-05-07T11:57:38.900Z,20.94
2018-05-07T12:00:04.784Z,21.83
2018-05-07T12:02:30.695Z,20.09
2018-05-07T12:04:56.481Z,19.89
2018-05-07T12:07:22.323Z,20.30
2018-05-07T12:09:48.196Z,19.81
2018-05-07T12:12:14.124Z,20.24
2018-05-07T12:14:39.999Z,19.76
2018-05-07T12:17:05.860Z,19.26
2018-05-07T12:19:31.738Z,19.65
2018-05-07T12:21:57.600Z,19.00
2018-05-07T12:24:23.466Z,19.62
2018-05-07T12:26:49.296Z,20.20
2018-05-07T12:29:15.148Z,20.63
2018-05-07T12:31:41.149Z,19.72
2018-05-07T12:34:06.885Z,19.46
2018-05-07T12:36:32.725Z,19.30
2018-05-07T12:38:58.577Z,19.42
2018-05-07T12:41:24.453Z,18.48
2018-05-07T12:43:50.539Z,19.23
2018-05-07T12:46:16.393Z,20.21
2018-05-07T12:48:42.267Z,18.52
2018-05-07T12:51:08.121Z,18.08
2018-05-07T12:53:33.973Z,18.41
2018-05-07T12:55:59.826Z,18.33
2018-05-07T12:58:25.680Z,18.12
2018-05-07T13:00:51.525Z,18.06
2018-05-07T13:03:17.411Z,18.44
2018-05-07T13:05:43.297Z,18.87
2018-05-07T13:08:09.090Z,18.41
2018-05-07T13:10:34.968Z,19.15
2018-05-07T13:13:00.864Z,19.57
2018-05-07T13:15:26.638Z,18.34
2018-05-07T13:17:52.499Z,19.25
2018-05-07T13:20:18.332Z,18.94
2018-05-07T13:22:44.203Z,19.16
2018-05-07T13:25:10.055Z,19.41
2018-05-07T13:27:35.885Z,18.28
2018-05-07T13:30:01.714Z,17.97
2018-05-07T13:32:27.607Z,18.50
2018-05-07T13:34:53.537Z,18.42
2018-05-07T13:37:19.407Z,19.25
2018-05-07T13:39:45.248Z,19.23
2018-05-07T13:42:11.104Z,18.15
2018-05-07T13:44:36.961Z,17.89
2018-05-07T13:47:02.833Z,17.55
2018-05-07T13:49:28.705Z,18.86
2018-05-07T13:51:54.571Z,18.51
2018-05-07T13:54:20.450Z,18.64
2018-05-07T13:56:46.325Z,19.55
2018-05-07T13:59:12.231Z,18.93
2018-05-07T14:01:38.123Z,18.42
2018-05-07T14:04:03.986Z,19.55
2018-05-07T14:06:29.845Z,18.78
2018-05-07T14:08:55.708Z,19.12
2018-05-07T14:11:21.588Z,18.41
2018-05-07T14:13:47.492Z,17.84
2018-05-07T14:16:13.341Z,17.97
2018-05-07T14:18:39.220Z,18.57
2018-05-07T14:21:05.062Z,18.32
2018-05-07T14:23:30.915Z,16.73
2018-05-07T14:25:56.777Z,17.64
2018-05-07T14:28:22.597Z,17.18
2018-05-07T14:30:48.413Z,17.58
2018-05-07T14:33:14.300Z,17.65
2018-05-07T14:35:40.151Z,17.95
2018-05-07T14:38:06.031Z,17.63
2018-05-07T14:40:31.964Z,17.64
2018-05-07T14:42:57.798Z,17.13
2018-05-07T14:45:23.700Z,18.31
2018-05-07T14:47:49.537Z,18.00
2018-05-07T14:50:15.400Z,18.10
2018-05-07T14:52:41.289Z,17.64
2018-05-07T14:55:07.162Z,18.67
2018-05-07T14:57:33.049Z,17.95
2018-05-07T14:59:58.909Z,18.26
2018-05-07T15:02:24.799Z,19.16
2018-05-07T15:04:50.725Z,19.51
2018-05-07T15:07:16.732Z,19.30
2018-05-07T15:09:42.614Z,19.11
2018-05-07T15:12:08.448Z,19.23
2018-05-07T15:14:34.428Z,19.23
2018-05-07T15:17:00.302Z,20.29
2018-05-07T15:19:26.169Z,20.19
2018-05-07T15:21:52.066Z,19.62
2018-05-07T15:24:17.970Z,19.98
2018-05-07T15:26:43.858Z,19.70
2018-05-07T15:29:09.811Z,20.19
2018-05-07T15:31:35.676Z,19.80
2018-05-07T15:34:01.550Z,19.46
2018-05-07T15:36:27.423Z,19.27
2018-05-07T15:38:53.328Z,20.46
2018-05-07T15:41:19.216Z,19.47
2018-05-07T15:43:45.119Z,18.85
2018-05-07T15:46:10.957Z,18.30
2018-05-07T15:48:36.844Z,18.58
2018-05-07T15:51:02.713Z,19.59
2018-05-07T15:53:28.586Z,19.94
2018-05-07T15:55:54.519Z,20.35
2018-05-07T15:58:20.379Z,20.24
2018-05-07T16:00:46.301Z,19.34
2018-05-07T16:03:12.255Z,20.37
2018-05-07T16:05:38.855Z,20.71
2018-05-07T16:08:04.727Z,20.88
2018-05-07T16:10:30.581Z,21.02
2018-05-07T16:12:56.447Z,21.41
2018-05-07T16:15:22.293Z,22.18
2018-05-07T16:17:48.174Z,22.59
2018-05-07T16:20:14.073Z,22.93
2018-05-07T16:22:39.914Z,22.59
2018-05-07T16:25:05.778Z,23.03
2018-05-07T16:27:31.668Z,23.34
2018-05-07T16:29:57.538Z,23.88
2018-05-07T16:32:23.419Z,23.99
2018-05-07T16:34:49.359Z,24.46
2018-05-07T16:37:15.286Z,24.64
2018-05-07T16:39:41.172Z,24.91
2018-05-07T16:42:07.151Z,24.32
2018-05-07T16:44:33.004Z,24.21
2018-05-07T16:46:58.857Z,24.14
2018-05-07T16:49:24.712Z,24.18
2018-05-07T16:51:50.582Z,25.31
2018-05-07T16:54:16.596Z,24.90
2018-05-07T16:56:42.357Z,24.25
2018-05-07T16:59:08.225Z,24.01
2018-05-07T17:01:34.108Z,24.38
2018-05-07T17:03:59.996Z,24.72
2018-05-07T17:06:25.889Z,24.54
2018-05-07T17:08:51.813Z,24.76
2018-05-07T17:11:17.712Z,25.05
2018-05-07T17:13:43.560Z,25.08
2018-05-07T17:16:09.448Z,24.02
2018-05-07T17:18:35.450Z,24.44
2018-05-07T17:21:01.316Z,24.46
2018-05-07T17:23:27.149Z,24.70
2018-05-07T17:25:53.032Z,25.21
2018-05-07T17:28:18.888Z,25.68
2018-05-07T17:30:44.750Z,26.19
2018-05-07T17:33:10.573Z,26.40
2018-05-07T17:35:36.409Z,26.44
2018-05-07T17:38:02.292Z,26.37
2018-05-07T17:40:28.149Z,26.62
2018-05-07T17:42:54.002Z,27.08
2018-05-07T17:45:32.030Z,26.75
2018-05-07T17:48:10.108Z,27.40
2018-05-07T17:50:35.932Z,27.29
2018-05-07T17:53:02.033Z,27.21
2018-05-07T17:55:27.855Z,27.37
2018-05-07T17:57:53.700Z,27.74
2018-05-07T18:00:19.624Z,27.85
2018-05-07T18:02:45.500Z,28.11
2018-05-07T18:05:11.362Z,28.40
2018-05-07T18:07:37.277Z,28.46
2018-05-07T18:10:03.416Z,28.31
2018-05-07T18:12:29.244Z,28.70
2018-05-07T18:14:55.072Z,28.82
2018-05-07T18:17:21.136Z,28.96
2018-05-07T18:19:46.825Z,29.02
2018-05-07T18:22:12.858Z,29.28
2018-05-07T18:24:38.685Z,29.34
2018-05-07T18:27:04.543Z,29.55
2018-05-07T18:29:30.394Z,29.58
2018-05-07T18:31:56.276Z,29.36
2018-05-07T18:34:22.169Z,29.45
2018-05-07T18:36:48.065Z,29.65
2018-05-07T18:39:13.926Z,29.72
2018-05-07T18:41:39.766Z,30.14
2018-05-07T18:44:05.634Z,30.20
2018-05-07T18:46:31.546Z,30.47
2018-05-07T18:49:04.430Z,30.58
2018-05-07T18:51:30.304Z,31.00
2018-05-07T18:53:56.193Z,31.29
2018-05-07T18:56:22.089Z,31.77
2018-05-07T18:58:47.947Z,31.92
2018-05-07T19:01:13.815Z,31.69
2018-05-07T19:03:39.656Z,32.09
2018-05-07T19:06:05.522Z,32.34
2018-05-07T19:08:31.394Z,32.56
2018-05-07T19:10:57.237Z,32.45
2018-05-07T19:13:23.110Z,32.54
2018-05-07T19:15:48.972Z,33.27
2018-05-07T19:18:14.914Z,34.13
2018-05-07T19:20:40.809Z,34.59
2018-05-07T19:23:06.713Z,34.85
2018-05-07T19:25:32.629Z,35.62
2018-05-07T19:27:58.477Z,35.27
2018-05-07T19:30:24.319Z,36.14
2018-05-07T19:32:50.248Z,36.09
2018-05-07T19:35:16.109Z,36.71
2018-05-07T19:37:41.947Z,36.57
2018-05-07T19:40:07.828Z,36.58
2018-05-07T19:42:33.705Z,37.10
2018-05-07T19:44:59.590Z,37.34
2018-05-07T19:47:25.453Z,37.25
2018-05-07T19:49:51.358Z,37.78
2018-05-07T19:52:17.227Z,38.21
2018-05-07T19:54:43.085Z,37.51
2018-05-07T19:57:08.989Z,38.01
2018-05-07T19:59:34.824Z,38.13
2018-05-07T20:02:00.686Z,37.99
2018-05-07T20:04:26.533Z,37.84
2018-05-07T20:06:52.389Z,38.29
2018-05-07T20:09:18.229Z,38.23
2018-05-07T20:11:44.076Z,38.43
2018-05-07T20:14:09.932Z,38.69
2018-05-07T20:16:35.808Z,38.32
2018-05-07T20:19:01.741Z,38.28
2018-05-07T20:21:27.587Z,38.19
2018-05-07T20:23:53.435Z,38.73
2018-05-07T20:26:19.308Z,38.51
2018-05-07T20:28:45.182Z,38.50
2018-05-07T20:31:11.064Z,38.03
2018-05-07T20:33:36.945Z,38.27
2018-05-07T20:36:02.856Z,38.50
2018-05-07T20:38:28.756Z,38.39
2018-05-07T20:40:54.624Z,38.47
2018-05-07T20:43:20.517Z,38.30
2018-05-07T20:45:46.380Z,38.64
2018-05-07T20:48:12.338Z,38.72
2018-05-07T20:50:38.160Z,38.49
2018-05-07T20:53:04.026Z,38.54
2018-05-07T20:55:29.879Z,38.50
2018-05-07T20:57:55.770Z,38.88
2018-05-07T21:00:21.625Z,38.51
2018-05-07T21:02:47.477Z,39.08
2018-05-07T21:05:13.364Z,39.30
2018-05-07T21:07:39.265Z,39.06
2018-05-07T21:10:05.149Z,39.21
2018-05-07T21:12:31.016Z,39.11
2018-05-07T21:14:56.882Z,39.50
2018-05-07T21:17:22.727Z,39.45
2018-05-07T21:19:48.611Z,39.66
2018-05-07T21:22:14.497Z,39.78
2018-05-07T21:24:40.366Z,40.17
2018-05-07T21:27:06.229Z,40.92
2018-05-07T21:29:32.096Z,40.82
2018-05-07T21:31:57.949Z,41.04
2018-05-07T21:34:23.809Z,41.11
2018-05-07T21:36:49.657Z,41.32
2018-05-07T21:39:15.520Z,41.97
2018-05-07T21:41:41.407Z,42.16
2018-05-07T21:44:07.220Z,42.55
2018-05-07T21:46:33.072Z,42.79
2018-05-07T21:48:58.902Z,43.18
2018-05-07T21:51:24.741Z,43.36
2018-05-07T21:53:50.616Z,43.57
2018-05-07T21:56:16.465Z,43.81
2018-05-07T21:58:42.317Z,44.07
2018-05-07T22:01:08.185Z,44.53
2018-05-07T22:03:34.050Z,44.74
2018-05-07T22:05:59.955Z,44.77
2018-05-07T22:08:25.849Z,45.13
2018-05-07T22:10:51.737Z,45.12
2018-05-07T22:13:17.601Z,45.49
2018-05-07T22:15:43.481Z,45.62
2018-05-07T22:18:09.326Z,45.68
2018-05-07T22:20:35.221Z,45.49
2018-05-07T22:23:01.102Z,45.71
2018-05-07T22:25:27.011Z,45.56
2018-05-07T22:27:52.890Z,45.59
2018-05-07T22:30:18.726Z,45.69
2018-05-07T22:32:44.569Z,45.35
2018-05-07T22:35:10.428Z,45.66
2018-05-07T22:37:36.238Z,45.76
2018-05-07T22:40:02.148Z,45.98
2018-05-07T22:42:28.204Z,46.59
2018-05-07T22:44:54.083Z,46.66
2018-05-07T22:47:19.933Z,46.54
2018-05-07T22:49:45.858Z,46.57
2018-05-07T22:52:11.690Z,46.81
2018-05-07T22:54:37.616Z,46.82
2018-05-07T22:57:03.462Z,47.05
2018-05-07T22:59:29.309Z,47.47
2018-05-07T23:01:55.163Z,47.29
2018-05-07T23:04:20.992Z,47.29
2018-05-07T23:06:46.875Z,47.05
2018-05-07T23:09:12.760Z,46.86
2018-05-07T23:11:38.636Z,47.23
2018-05-07T23:14:04.513Z,47.03
2018-05-07T23:16:30.396Z,47.09
2018-05-07T23:18:56.252Z,47.06
2018-05-07T23:21:22.124Z,47.28
2018-05-07T23:23:48.036Z,47.26
2018-05-07T23:26:13.896Z,47.21
2018-05-07T23:28:39.742Z,47.01
2018-05-07T23:31:05.577Z,46.90
2018-05-07T23:33:31.429Z,47.19
2018-05-07T23:35:57.285Z,47.34
2018-05-07T23:38:23.120Z,46.96
2018-05-07T23:40:49.022Z,47.47
2018-05-07T23:43:14.840Z,47.54
2018-05-07T23:45:40.724Z,47.81
2018-05-07T23:48:06.594Z,47.65
2018-05-07T23:50:32.439Z,47.55
2018-05-07T23:52:58.294Z,47.37
2018-05-07T23:55:24.169Z,47.40
2018-05-07T23:57:50.008Z,47.42
